Time;durP1;ratioP1;P1;durP2;ratioP2;P2;SDS_P1;SDS_P2;PMS_P1;PMS_P2;Temp;Humidity;BMP_temperature;BMP_pressure;BME280_temperature;BME280_humidity;BME280_pressure;Samples;Min_cycle;Max_cycle;Signal;HPM_P1;HPM_P2
2023/05/06 00:00:17;;;;;;;16.83;14.93;;;16.90;99.90;;;;;;4996666;28;20216;-81
2023/05/06 00:02:43;;;;;;;16.33;13.50;;;16.80;99.90;;;;;;4996693;28;20966;-81
2023/05/06 00:05:09;;;;;;;17.53;14.07;;;16.80;99.90;;;;;;4995337;28;20235;-84
2023/05/06 00:07:34;;;;;;;18.40;14.40;;;16.80;99.90;;;;;;4995361;28;20176;-84
2023/05/06 00:10:00;;;;;;;17.87;15.00;;;16.80;99.90;;;;;;4995291;28;20199;-81
2023/05/06 00:12:26;;;;;;;21.13;16.17;;;16.80;99.90;;;;;;4995249;28;20211;-80
2023/05/06 00:14:52;;;;;;;19.03;14.93;;;16.80;99.90;;;;;;4996876;28;20200;-84
2023/05/06 00:17:17;;;;;;;20.20;15.97;;;16.60;99.90;;;;;;4995083;28;20180;-81
2023/05/06 00:19:44;;;;;;;19.10;16.63;;;16.60;99.90;;;;;;4994929;28;20669;-84
2023/05/06 00:22:09;;;;;;;20.60;16.93;;;16.50;99.90;;;;;;4996479;28;20522;-80
2023/05/06 00:24:35;;;;;;;19.40;16.30;;;16.50;99.90;;;;;;4995280;28;20432;-83
2023/05/06 00:27:01;;;;;;;21.70;16.83;;;16.40;99.90;;;;;;4995242;28;20266;-82
2023/05/06 00:29:27;;;;;;;23.37;15.67;;;16.30;99.90;;;;;;4996545;28;20179;-81
2023/05/06 00:31:52;;;;;;;21.20;16.23;;;16.40;99.90;;;;;;4994855;28;20524;-84
2023/05/06 00:34:18;;;;;;;18.63;16.10;;;16.30;99.90;;;;;;4996806;28;20185;-84
2023/05/06 00:36:43;;;;;;;24.87;17.10;;;16.30;99.90;;;;;;4994800;28;20695;-84
2023/05/06 00:39:09;;;;;;;21.40;17.57;;;16.30;99.90;;;;;;4994926;28;20179;-81
2023/05/06 00:41:35;;;;;;;23.07;18.20;;;16.20;99.90;;;;;;4994648;28;20228;-81
2023/05/06 00:44:00;;;;;;;22.77;17.57;;;16.20;99.90;;;;;;4994741;28;20601;-81
2023/05/06 00:46:26;;;;;;;22.97;17.00;;;16.10;99.90;;;;;;4995815;28;20215;-81
2023/05/06 00:48:53;;;;;;;22.93;17.90;;;16.10;99.90;;;;;;4995442;28;20203;-81
2023/05/06 00:51:19;;;;;;;19.60;16.43;;;16.00;99.90;;;;;;4995799;28;20453;-81
2023/05/06 00:53:48;;;;;;;20.20;16.63;;;15.90;99.90;;;;;;4994536;28;20425;-84
2023/05/06 00:56:16;;;;;;;18.97;16.93;;;15.90;99.90;;;;;;4995794;28;20203;-81
2023/05/06 00:58:43;;;;;;;18.93;16.40;;;15.90;99.90;;;;;;4995942;28;20425;-83
2023/05/06 01:01:09;;;;;;;18.63;16.50;;;16.00;99.90;;;;;;4995457;28;20854;-84
2023/05/06 01:03:35;;;;;;;22.63;18.70;;;16.00;99.90;;;;;;4995549;28;20420;-81
2023/05/06 01:06:28;;;;;;;19.53;17.43;;;16.00;99.90;;;;;;4994245;28;20434;-84
2023/05/06 01:09:06;;;;;;;20.40;18.20;;;16.00;99.90;;;;;;4994359;28;20172;-81
2023/05/06 01:11:46;;;;;;;18.90;16.30;;;15.90;99.90;;;;;;4994098;28;20461;-84
2023/05/06 01:14:30;;;;;;;20.73;17.20;;;15.90;99.90;;;;;;4995882;28;20833;-84
2023/05/06 01:17:01;;;;;;;19.70;17.30;;;15.90;99.90;;;;;;4994012;28;20489;-81
2023/05/06 01:19:52;;;;;;;19.47;16.80;;;15.90;99.90;;;;;;4995636;28;20414;-81
2023/05/06 01:22:18;;;;;;;18.63;15.93;;;15.90;99.90;;;;;;4994000;28;20947;-83
2023/05/06 01:24:48;;;;;;;21.10;17.43;;;15.80;99.90;;;;;;4993937;28;20445;-84
2023/05/06 01:27:15;;;;;;;21.53;18.47;;;15.80;99.90;;;;;;4993895;28;20943;-84
2023/05/06 01:29:42;;;;;;;22.97;17.37;;;15.70;99.90;;;;;;4995539;28;20930;-81
2023/05/06 01:32:26;;;;;;;21.80;16.63;;;15.60;99.90;;;;;;4993719;28;20420;-84
2023/05/06 01:35:18;;;;;;;25.00;19.53;;;15.60;99.90;;;;;;4993585;28;20421;-81
2023/05/06 01:37:54;;;;;;;21.63;18.33;;;15.50;99.90;;;;;;4993563;28;20426;-81
2023/05/06 01:40:25;;;;;;;20.73;17.50;;;15.50;99.90;;;;;;4993518;28;21080;-84
2023/05/06 01:42:51;;;;;;;24.30;18.20;;;15.50;99.90;;;;;;4994877;28;20464;-84
2023/05/06 01:45:19;;;;;;;26.43;18.83;;;15.50;99.90;;;;;;4994687;28;20448;-84
2023/05/06 01:47:46;;;;;;;25.90;18.13;;;15.50;99.90;;;;;;4993365;28;20409;-81
2023/05/06 01:50:12;;;;;;;21.73;18.00;;;15.50;99.90;;;;;;4994700;28;20438;-81
2023/05/06 01:52:38;;;;;;;21.27;18.20;;;15.50;99.90;;;;;;4994621;28;20903;-81
2023/05/06 01:55:04;;;;;;;21.07;18.17;;;15.50;99.90;;;;;;4993397;28;20429;-81
2023/05/06 01:57:30;;;;;;;24.50;19.37;;;15.50;99.90;;;;;;4994468;28;20172;-83
2023/05/06 01:59:55;;;;;;;23.37;18.87;;;15.50;99.90;;;;;;4993053;28;21022;-84
2023/05/06 02:02:22;;;;;;;22.70;19.00;;;15.40;99.90;;;;;;4992823;28;20214;-82
2023/05/06 02:04:49;;;;;;;25.00;20.20;;;15.40;99.90;;;;;;4993172;28;20334;-84
2023/05/06 02:07:15;;;;;;;22.70;19.00;;;15.40;99.90;;;;;;4993230;28;20413;-84
2023/05/06 02:09:41;;;;;;;25.80;19.80;;;15.40;99.90;;;;;;4994876;28;20436;-84
2023/05/06 02:12:06;;;;;;;22.97;18.80;;;15.40;99.90;;;;;;4994492;28;20663;-81
2023/05/06 02:14:32;;;;;;;21.67;18.43;;;15.40;99.90;;;;;;4993439;28;20554;-84
2023/05/06 02:17:02;;;;;;;22.80;19.10;;;15.40;99.90;;;;;;4993310;28;20208;-83
2023/05/06 02:19:28;;;;;;;22.57;19.10;;;15.40;99.90;;;;;;4993527;28;20429;-81
2023/05/06 02:21:53;;;;;;;27.83;19.30;;;15.30;99.90;;;;;;4992984;28;20499;-80
2023/05/06 02:24:19;;;;;;;20.53;18.33;;;15.30;99.90;;;;;;4994188;28;20712;-84
2023/05/06 02:26:45;;;;;;;23.60;19.50;;;15.30;99.90;;;;;;4993001;28;20204;-83
2023/05/06 02:29:10;;;;;;;20.63;17.90;;;15.20;99.90;;;;;;4993174;28;20235;-84
2023/05/06 02:31:36;;;;;;;17.27;15.53;;;15.20;99.90;;;;;;4992862;28;20211;-81
2023/05/06 02:34:01;;;;;;;20.13;17.93;;;15.00;99.90;;;;;;4994514;28;20543;-84
2023/05/06 02:36:27;;;;;;;20.63;18.37;;;15.00;99.90;;;;;;4992970;28;20204;-81
2023/05/06 02:38:53;;;;;;;23.37;18.80;;;14.90;99.90;;;;;;4992963;28;20179;-81
2023/05/06 02:41:19;;;;;;;20.53;16.90;;;14.90;99.90;;;;;;4994029;28;20505;-84
2023/05/06 02:43:45;;;;;;;19.43;17.20;;;14.80;99.90;;;;;;4994395;28;20655;-84
2023/05/06 02:46:11;;;;;;;24.10;19.73;;;14.80;99.90;;;;;;4992788;28;20509;-84
2023/05/06 02:48:36;;;;;;;25.17;18.30;;;14.70;99.90;;;;;;4992958;28;20544;-84
2023/05/06 02:51:02;;;;;;;19.13;16.20;;;14.60;99.90;;;;;;4994086;28;20206;-84
2023/05/06 02:53:28;;;;;;;21.27;17.43;;;14.60;99.90;;;;;;4994274;28;20564;-84
2023/05/06 02:55:53;;;;;;;20.80;17.93;;;14.60;99.90;;;;;;4992669;28;20204;-81
2023/05/06 02:58:19;;;;;;;22.43;17.73;;;14.60;99.90;;;;;;4992784;28;20191;-84
2023/05/06 03:00:45;;;;;;;23.57;18.83;;;14.60;99.90;;;;;;4992609;28;20227;-84
2023/05/06 03:03:10;;;;;;;23.67;18.93;;;14.60;99.90;;;;;;4992641;28;20270;-84
2023/05/06 03:05:36;;;;;;;20.60;18.40;;;14.60;99.90;;;;;;4992463;28;20236;-83
2023/05/06 03:08:02;;;;;;;26.30;19.03;;;14.60;99.90;;;;;;4992549;28;20180;-83
2023/05/06 03:10:27;;;;;;;23.10;18.57;;;14.60;99.90;;;;;;4993927;28;20207;-84
2023/05/06 03:12:53;;;;;;;22.20;17.50;;;14.60;99.90;;;;;;4994776;28;20425;-81
2023/05/06 03:15:19;;;;;;;27.43;18.83;;;14.70;99.90;;;;;;4997528;28;20322;-84
2023/05/06 03:17:46;;;;;;;24.53;19.13;;;14.70;99.90;;;;;;4996283;28;20669;-84
2023/05/06 03:20:12;;;;;;;21.00;16.80;;;14.70;99.90;;;;;;4997453;28;20701;-81
2023/05/06 03:22:38;;;;;;;25.13;17.27;;;14.60;99.90;;;;;;4997330;28;20405;-84
2023/05/06 03:25:04;;;;;;;20.23;16.90;;;14.60;99.90;;;;;;4996018;28;20440;-80
2023/05/06 03:27:30;;;;;;;19.37;16.00;;;14.50;99.90;;;;;;4995998;28;20175;-81
2023/05/06 03:29:56;;;;;;;20.33;16.03;;;14.50;99.90;;;;;;4997217;28;20433;-82
2023/05/06 03:32:21;;;;;;;18.60;16.67;;;14.50;99.90;;;;;;4996078;28;20539;-83
2023/05/06 03:34:47;;;;;;;21.20;17.07;;;14.40;99.90;;;;;;4997599;28;20186;-81
2023/05/06 03:37:12;;;;;;;24.87;19.30;;;14.50;99.90;;;;;;4997188;28;20183;-83
2023/05/06 03:39:38;;;;;;;22.37;18.33;;;14.40;99.90;;;;;;4997406;28;20279;-84
2023/05/06 03:42:04;;;;;;;24.33;17.33;;;14.40;99.90;;;;;;4997035;28;20271;-84
2023/05/06 03:44:30;;;;;;;21.57;17.60;;;14.30;99.90;;;;;;4995898;28;20188;-81
2023/05/06 03:46:55;;;;;;;21.30;17.73;;;14.30;99.90;;;;;;4996955;28;20833;-80
2023/05/06 03:49:21;;;;;;;20.77;18.50;;;14.30;99.90;;;;;;4997436;28;20176;-84
2023/05/06 03:51:47;;;;;;;21.80;17.93;;;14.30;99.90;;;;;;4995657;28;20203;-81
2023/05/06 03:54:12;;;;;;;23.50;18.30;;;14.30;99.90;;;;;;4997317;28;20179;-84
2023/05/06 03:56:38;;;;;;;22.87;19.63;;;14.30;99.90;;;;;;4996839;28;20211;-80
2023/05/06 03:59:03;;;;;;;21.80;18.23;;;14.30;99.90;;;;;;4996742;28;20512;-80
2023/05/06 04:01:29;;;;;;;25.27;20.80;;;14.30;99.90;;;;;;4995422;28;20230;-84
2023/05/06 04:03:55;;;;;;;22.00;19.50;;;14.40;99.90;;;;;;4995328;28;20316;-80
2023/05/06 04:06:20;;;;;;;27.20;20.80;;;14.40;99.90;;;;;;4996750;28;20200;-80
2023/05/06 04:08:46;;;;;;;24.90;20.23;;;14.40;99.90;;;;;;4996557;28;20195;-80
2023/05/06 04:11:12;;;;;;;24.90;19.80;;;14.50;99.90;;;;;;4995274;28;20254;-83
2023/05/06 04:13:37;;;;;;;27.60;21.20;;;14.50;99.90;;;;;;4995440;28;20609;-80
2023/05/06 04:16:04;;;;;;;23.17;19.77;;;14.60;99.90;;;;;;4996375;28;20635;-80
2023/05/06 04:18:31;;;;;;;26.17;18.93;;;14.70;99.90;;;;;;4995276;28;20184;-84
2023/05/06 04:20:57;;;;;;;27.77;20.97;;;14.70;99.90;;;;;;4994931;28;20481;-84
2023/05/06 04:23:22;;;;;;;27.37;21.50;;;14.80;99.90;;;;;;4994637;28;20533;-85
2023/05/06 04:25:48;;;;;;;29.47;23.40;;;14.80;99.90;;;;;;4994874;28;20215;-85
2023/05/06 04:28:15;;;;;;;31.43;24.43;;;14.90;99.90;;;;;;4995067;28;20542;-84
2023/05/06 04:30:45;;;;;;;33.00;24.93;;;15.00;99.90;;;;;;4994926;28;20719;-80
2023/05/06 04:33:11;;;;;;;30.50;24.03;;;15.00;99.90;;;;;;4994874;28;20429;-81
2023/05/06 04:35:37;;;;;;;33.73;26.40;;;15.10;99.90;;;;;;4994762;28;20992;-84
2023/05/06 04:38:03;;;;;;;34.93;27.40;;;15.20;99.90;;;;;;4996048;28;20451;-80
2023/05/06 04:40:29;;;;;;;37.30;28.00;;;15.20;99.90;;;;;;4995836;28;20476;-84
2023/05/06 04:42:55;;;;;;;33.13;25.50;;;15.30;99.90;;;;;;4994582;28;20421;-80
2023/05/06 04:45:24;;;;;;;39.20;25.03;;;15.40;99.90;;;;;;4995980;28;20460;-84
2023/05/06 04:47:49;;;;;;;34.07;25.60;;;15.50;99.90;;;;;;4995730;28;20180;-80
2023/05/06 04:50:15;;;;;;;33.60;25.00;;;15.50;99.90;;;;;;4995779;28;20445;-84
2023/05/06 04:52:41;;;;;;;33.33;27.00;;;15.60;99.90;;;;;;5010629;28;20661;-81
2023/05/06 04:55:06;;;;;;;35.10;27.83;;;15.70;99.90;;;;;;4995728;28;20210;-82
2023/05/06 04:57:32;;;;;;;30.47;24.10;;;15.80;99.90;;;;;;4995727;28;20172;-81
2023/05/06 04:59:58;;;;;;;35.40;26.10;;;15.90;99.90;;;;;;4995445;28;20465;-81
2023/05/06 05:02:24;;;;;;;33.23;25.67;;;16.00;99.90;;;;;;4994418;28;20203;-82
2023/05/06 05:04:49;;;;;;;33.53;24.00;;;16.10;99.90;;;;;;4993851;28;20255;-81
2023/05/06 05:07:15;;;;;;;34.13;26.20;;;16.10;99.90;;;;;;4995572;28;20410;-80
2023/05/06 05:09:41;;;;;;;35.37;26.43;;;16.20;99.90;;;;;;4996117;28;20259;-81
2023/05/06 05:12:06;;;;;;;33.80;25.43;;;16.30;99.90;;;;;;4994604;28;20179;-81
2023/05/06 05:14:32;;;;;;;34.17;28.57;;;16.40;99.90;;;;;;4995813;28;20182;-80
2023/05/06 05:16:58;;;;;;;36.03;27.80;;;16.50;99.90;;;;;;4995242;28;20207;-83
2023/05/06 05:19:23;;;;;;;37.07;26.93;;;16.60;99.90;;;;;;4994173;28;20676;-85
2023/05/06 05:21:49;;;;;;;34.20;25.63;;;16.70;99.90;;;;;;4995082;28;20624;-81
2023/05/06 05:24:15;;;;;;;36.23;27.13;;;16.80;99.90;;;;;;4995576;28;20222;-84
2023/05/06 05:26:41;;;;;;;36.87;26.20;;;16.90;99.90;;;;;;4995091;28;20595;-84
2023/05/06 05:29:06;;;;;;;35.43;27.20;;;17.00;99.90;;;;;;4995441;28;20457;-79
2023/05/06 05:31:32;;;;;;;35.00;26.73;;;17.20;99.90;;;;;;4994924;28;20207;-81
2023/05/06 05:33:58;;;;;;;38.40;27.93;;;17.30;99.90;;;;;;4995241;28;20495;-81
2023/05/06 05:36:24;;;;;;;43.27;28.40;;;17.30;99.90;;;;;;4994033;28;20219;-84
2023/05/06 05:38:49;;;;;;;43.90;27.80;;;17.50;99.90;;;;;;4993780;28;20180;-80
2023/05/06 05:41:15;;;;;;;35.13;26.80;;;17.60;99.90;;;;;;4993527;28;20513;-81
2023/05/06 05:43:41;;;;;;;32.43;26.50;;;17.80;99.90;;;;;;4995073;28;20179;-81
2023/05/06 05:46:07;;;;;;;37.10;24.87;;;17.90;99.90;;;;;;4994857;28;20435;-81
2023/05/06 05:48:33;;;;;;;29.73;25.07;;;18.00;99.90;;;;;;4995017;28;20445;-81
2023/05/06 05:51:00;;;;;;;31.00;23.87;;;18.20;99.90;;;;;;4994654;28;20262;-81
2023/05/06 05:53:26;;;;;;;28.80;22.70;;;18.30;99.90;;;;;;4994785;28;20437;-81
2023/05/06 05:55:51;;;;;;;25.60;22.00;;;18.40;99.90;;;;;;4993382;28;20429;-84
2023/05/06 05:58:17;;;;;;;29.17;21.70;;;18.60;99.90;;;;;;4994842;28;20526;-80
2023/05/06 06:00:43;;;;;;;27.17;20.83;;;18.70;99.90;;;;;;4994532;28;20294;-81
2023/05/06 06:03:08;;;;;;;24.73;20.60;;;18.90;99.90;;;;;;4993370;28;20183;-81
2023/05/06 06:05:34;;;;;;;24.20;19.23;;;19.00;99.90;;;;;;4994603;28;20313;-84
2023/05/06 06:08:00;;;;;;;23.37;19.40;;;19.10;99.90;;;;;;4993368;28;20185;-84
2023/05/06 06:10:25;;;;;;;21.23;18.97;;;19.20;99.90;;;;;;4993204;28;20204;-84
2023/05/06 06:12:51;;;;;;;26.00;19.30;;;19.40;99.90;;;;;;4994448;28;20196;-81
2023/05/06 06:15:17;;;;;;;27.00;20.17;;;19.50;99.90;;;;;;4994432;28;20614;-80
2023/05/06 06:17:43;;;;;;;21.63;19.33;;;19.70;99.90;;;;;;4993144;28;20527;-84
2023/05/06 06:20:09;;;;;;;19.33;17.27;;;19.80;99.90;;;;;;4993055;28;20311;-81
2023/05/06 06:22:35;;;;;;;17.40;15.37;;;19.90;99.90;;;;;;4994332;28;20408;-84
2023/05/06 06:25:00;;;;;;;21.10;16.00;;;20.00;99.90;;;;;;4994287;28;20441;-80
2023/05/06 06:27:26;;;;;;;16.23;14.53;;;20.10;99.90;;;;;;4993051;28;20432;-83
2023/05/06 06:29:52;;;;;;;15.27;13.33;;;20.20;99.90;;;;;;4992780;28;20243;-81
2023/05/06 06:32:18;;;;;;;16.17;14.40;;;20.30;99.90;;;;;;4993030;28;20190;-81
2023/05/06 06:34:44;;;;;;;20.30;14.87;;;20.40;99.90;;;;;;4992959;28;20183;-80
2023/05/06 06:37:10;;;;;;;15.03;13.43;;;20.60;99.90;;;;;;4994233;28;20410;-80
2023/05/06 06:39:36;;;;;;;13.33;11.93;;;20.60;99.90;;;;;;4994507;28;20190;-81
2023/05/06 06:42:05;;;;;;;14.87;11.73;;;20.70;99.90;;;;;;4992843;28;20409;-83
2023/05/06 06:44:33;;;;;;;13.90;11.53;;;20.80;99.90;;;;;;4993081;28;20237;-84
2023/05/06 06:46:58;;;;;;;14.10;12.67;;;20.80;99.90;;;;;;4993464;28;20446;-80
2023/05/06 06:49:25;;;;;;;15.13;13.07;;;20.80;99.90;;;;;;4998515;28;20424;-81
2023/05/06 06:51:51;;;;;;;12.87;11.50;;;20.80;99.90;;;;;;4997906;28;20198;-86
2023/05/06 06:54:17;;;;;;;13.07;10.83;;;20.90;99.90;;;;;;4998194;28;20427;-83
2023/05/06 06:56:43;;;;;;;12.73;11.43;;;20.90;99.90;;;;;;4998172;28;20230;-86
2023/05/06 06:59:08;;;;;;;12.77;10.80;;;21.10;99.90;;;;;;4998483;28;20580;-84
2023/05/06 07:01:34;;;;;;;13.80;11.10;;;21.20;99.90;;;;;;4997865;28;20469;-81
2023/05/06 07:04:00;;;;;;;11.83;10.63;;;21.20;99.90;;;;;;4997746;28;20305;-81
2023/05/06 07:06:25;;;;;;;15.10;10.77;;;21.40;99.90;;;;;;4997860;28;20720;-81
2023/05/06 07:08:51;;;;;;;10.83;9.73;;;21.50;99.90;;;;;;4996569;28;20636;-84
2023/05/06 07:11:17;;;;;;;11.27;10.10;;;21.60;99.90;;;;;;4997595;28;20250;-80
2023/05/06 07:13:43;;;;;;;11.60;9.80;;;21.80;99.90;;;;;;4996241;28;20188;-81
2023/05/06 07:16:08;;;;;;;14.30;10.57;;;21.90;99.90;;;;;;4997602;28;20196;-86
2023/05/06 07:18:34;;;;;;;12.40;9.27;;;22.00;99.90;;;;;;4997730;28;20179;-83
2023/05/06 07:21:00;;;;;;;10.93;9.80;;;22.00;99.90;;;;;;4997295;28;20227;-85
2023/05/06 07:23:25;;;;;;;12.23;11.03;;;22.10;99.90;;;;;;4997652;28;20227;-81
2023/05/06 07:25:51;;;;;;;10.77;9.67;;;22.20;99.90;;;;;;4997275;28;20200;-83
2023/05/06 07:28:17;;;;;;;11.50;10.30;;;22.40;99.90;;;;;;4997483;28;20625;-81
2023/05/06 07:30:42;;;;;;;12.83;10.60;;;22.50;99.90;;;;;;4997250;28;20599;-81
2023/05/06 07:33:08;;;;;;;12.20;9.63;;;22.50;99.90;;;;;;4996040;28;20172;-84
2023/05/06 07:35:35;;;;;;;9.87;8.83;;;22.60;99.90;;;;;;4997150;28;20670;-81
2023/05/06 07:38:01;;;;;;;8.87;7.97;;;22.70;99.90;;;;;;4997243;28;20184;-80
2023/05/06 07:40:27;;;;;;;9.33;8.47;;;22.80;99.90;;;;;;4995766;28;20488;-86
2023/05/06 07:42:52;;;;;;;9.73;8.40;;;22.90;99.90;;;;;;4997166;28;20247;-85
2023/05/06 07:45:22;;;;;;;10.50;9.00;;;22.90;99.90;;;;;;4996092;28;20548;-86
2023/05/06 07:47:47;;;;;;;10.43;9.30;;;22.80;99.90;;;;;;4995665;28;20183;-83
2023/05/06 07:50:13;;;;;;;11.07;8.53;;;22.80;99.90;;;;;;4996904;28;20425;-82
2023/05/06 07:52:39;;;;;;;14.43;7.47;;;22.90;99.90;;;;;;4997016;28;20226;-81
2023/05/06 07:55:07;;;;;;;7.57;6.73;;;23.10;99.90;;;;;;4995627;28;20215;-80
2023/05/06 07:57:33;;;;;;;12.70;8.43;;;23.20;99.90;;;;;;4996861;28;20661;-84
2023/05/06 07:59:58;;;;;;;8.70;7.90;;;23.30;99.90;;;;;;4994307;28;20473;-80
2023/05/06 08:02:25;;;;;;;8.60;7.50;;;23.40;99.90;;;;;;4995560;28;20187;-83
2023/05/06 08:04:51;;;;;;;8.57;6.73;;;23.60;99.90;;;;;;4996795;28;20232;-84
2023/05/06 08:07:17;;;;;;;9.47;6.80;;;23.70;99.90;;;;;;4995529;28;20422;-80
2023/05/06 08:09:43;;;;;;;8.50;7.63;;;23.80;99.90;;;;;;4995472;28;20965;-81
2023/05/06 08:12:08;;;;;;;8.70;6.90;;;23.90;99.90;;;;;;4996774;28;20203;-83
2023/05/06 08:14:34;;;;;;;7.60;6.90;;;24.00;99.90;;;;;;4997114;28;20229;-82
2023/05/06 08:17:00;;;;;;;7.07;6.40;;;23.90;99.90;;;;;;4995191;28;20262;-81
2023/05/06 08:19:26;;;;;;;6.77;6.07;;;23.90;99.90;;;;;;4996884;28;20180;-87
2023/05/06 08:21:51;;;;;;;7.33;6.60;;;24.00;99.90;;;;;;4996752;28;20224;-84
2023/05/06 08:24:17;;;;;;;7.87;7.03;;;24.20;99.90;;;;;;4996758;28;20179;-82
2023/05/06 08:26:43;;;;;;;6.93;6.23;;;24.30;99.90;;;;;;4994965;28;20206;-86
2023/05/06 08:29:08;;;;;;;7.17;6.57;;;24.50;99.90;;;;;;4996616;28;20175;-81
2023/05/06 08:31:34;;;;;;;6.97;6.37;;;24.60;99.70;;;;;;4996146;28;20546;-82
2023/05/06 08:34:00;;;;;;;7.77;6.30;;;24.60;99.90;;;;;;4996473;28;20179;-81
2023/05/06 08:36:26;;;;;;;7.67;6.23;;;24.70;99.80;;;;;;4996353;28;20206;-81
2023/05/06 08:38:52;;;;;;;6.57;5.87;;;24.80;99.30;;;;;;4995001;28;20189;-86
2023/05/06 08:41:20;;;;;;;8.50;6.70;;;24.90;99.20;;;;;;4995932;28;20501;-82
2023/05/06 08:43:47;;;;;;;6.90;6.23;;;24.90;99.30;;;;;;4996296;28;20178;-82
2023/05/06 08:46:14;;;;;;;9.20;8.40;;;25.00;99.80;;;;;;4994595;28;20487;-86
2023/05/06 08:48:40;;;;;;;7.23;6.50;;;25.20;98.80;;;;;;4994650;28;20488;-82
2023/05/06 08:51:07;;;;;;;6.57;6.03;;;25.20;98.30;;;;;;4995824;28;20429;-87
2023/05/06 08:53:33;;;;;;;60.17;40.43;;;25.20;97.10;;;;;;4994635;28;20436;-85
2023/05/06 08:56:10;;;;;;;9.20;7.70;;;25.20;97.30;;;;;;4995682;28;20464;-85
2023/05/06 08:58:37;;;;;;;5.83;5.30;;;25.30;97.00;;;;;;4994620;28;20270;-87
2023/05/06 09:01:03;;;;;;;5.50;5.00;;;25.50;96.80;;;;;;4994230;28;20507;-85
2023/05/06 09:03:29;;;;;;;5.77;5.30;;;25.50;95.90;;;;;;4994212;28;20468;-86
2023/05/06 09:05:56;;;;;;;11.13;9.47;;;25.40;95.50;;;;;;4994251;28;20966;-86
2023/05/06 09:08:22;;;;;;;6.17;5.67;;;25.50;96.10;;;;;;4994425;28;20630;-82
2023/05/06 09:10:48;;;;;;;5.20;4.80;;;25.60;95.70;;;;;;4995105;28;20495;-85
2023/05/06 09:13:16;;;;;;;8.80;7.90;;;25.70;95.10;;;;;;4995674;28;20635;-84
2023/05/06 09:15:43;;;;;;;12.10;10.00;;;25.80;95.70;;;;;;4985837;28;20504;-85
2023/05/06 09:18:10;;;;;;;17.80;15.93;;;25.80;95.60;;;;;;4973350;28;20426;-82
2023/05/06 09:20:41;;;;;;;22.93;19.47;;;25.90;95.20;;;;;;4974816;28;20466;-82
2023/05/06 09:23:09;;;;;;;8.70;7.90;;;25.90;95.00;;;;;;4974260;28;20410;-86
2023/05/06 09:25:36;;;;;;;7.03;6.20;;;25.90;94.80;;;;;;4975624;28;20990;-84
2023/05/06 09:28:08;;;;;;;6.80;6.17;;;25.70;94.30;;;;;;4985343;28;20773;-84
2023/05/06 09:30:40;;;;;;;5.90;5.40;;;25.50;94.60;;;;;;5000583;28;20456;-81
2023/05/06 09:33:07;;;;;;;6.50;5.90;;;25.40;94.80;;;;;;4984442;28;20444;-82
2023/05/06 09:35:41;;;;;;;6.00;5.40;;;25.50;95.00;;;;;;4992141;28;20425;-84
2023/05/06 09:38:08;;;;;;;7.77;6.50;;;25.70;94.50;;;;;;4990669;28;20436;-84
2023/05/06 09:40:35;;;;;;;7.33;6.43;;;25.70;94.40;;;;;;4989420;28;20488;-83
2023/05/06 09:43:01;;;;;;;6.33;5.83;;;25.70;94.40;;;;;;4989994;28;20830;-84
2023/05/06 09:45:28;;;;;;;7.40;5.40;;;25.80;94.30;;;;;;4976049;28;20839;-84
2023/05/06 09:47:54;;;;;;;6.90;6.20;;;25.60;93.90;;;;;;4972936;28;20431;-83
2023/05/06 09:50:21;;;;;;;6.47;5.67;;;25.50;93.80;;;;;;4972785;28;20418;-86
2023/05/06 09:52:48;;;;;;;9.27;6.07;;;25.40;93.60;;;;;;4969446;28;20645;-82
2023/05/06 09:55:14;;;;;;;6.17;5.63;;;25.30;93.60;;;;;;4968614;28;20434;-82
2023/05/06 09:57:43;;;;;;;6.93;6.33;;;25.40;93.10;;;;;;4968448;28;20423;-82
2023/05/06 10:00:13;;;;;;;10.30;8.57;;;25.50;94.10;;;;;;4969945;28;20993;-81
2023/05/06 10:02:46;;;;;;;5.80;5.30;;;25.70;93.60;;;;;;4969360;28;20426;-85
2023/05/06 10:05:12;;;;;;;6.03;5.57;;;25.80;92.60;;;;;;4972504;28;20466;-84
2023/05/06 10:07:40;;;;;;;5.03;4.63;;;25.90;92.60;;;;;;4972443;28;20908;-84
2023/05/06 10:10:10;;;;;;;5.20;4.80;;;26.00;92.20;;;;;;4971602;28;20450;-86
2023/05/06 10:12:36;;;;;;;5.50;5.07;;;26.10;91.70;;;;;;4972972;28;20931;-81
2023/05/06 10:15:03;;;;;;;7.33;4.73;;;26.10;91.90;;;;;;4971528;28;20517;-82
2023/05/06 10:17:31;;;;;;;5.50;5.10;;;25.90;91.10;;;;;;4971556;28;20410;-84
2023/05/06 10:19:58;;;;;;;5.80;5.27;;;25.60;90.90;;;;;;4972759;28;20504;-81
2023/05/06 10:22:26;;;;;;;5.07;4.67;;;25.70;91.20;;;;;;4973801;28;20411;-82
2023/05/06 10:25:02;;;;;;;5.30;4.80;;;25.70;91.70;;;;;;4975283;28;20461;-85
2023/05/06 10:27:31;;;;;;;5.63;5.13;;;25.70;91.20;;;;;;4974951;28;20426;-81
2023/05/06 10:30:00;;;;;;;5.00;4.60;;;25.70;91.40;;;;;;4974730;28;20983;-84
2023/05/06 10:32:30;;;;;;;6.00;5.50;;;25.70;90.30;;;;;;4973589;28;20425;-82
2023/05/06 10:35:02;;;;;;;5.47;4.63;;;25.70;90.90;;;;;;4973676;28;20450;-82
2023/05/06 10:37:30;;;;;;;4.83;4.53;;;25.80;90.50;;;;;;4974849;28;20402;-81
2023/05/06 10:39:56;;;;;;;5.40;4.90;;;25.90;91.00;;;;;;4974733;28;20426;-83
2023/05/06 10:42:33;;;;;;;5.37;4.87;;;25.90;91.10;;;;;;4974769;28;20425;-81
2023/05/06 10:45:02;;;;;;;5.33;4.93;;;25.90;91.50;;;;;;4974736;28;20449;-81
2023/05/06 10:47:54;;;;;;;7.83;4.90;;;26.00;91.20;;;;;;4974730;28;20417;-84
2023/05/06 10:50:22;;;;;;;5.70;4.90;;;26.10;91.50;;;;;;4973442;28;20964;-84
2023/05/06 10:52:51;;;;;;;5.30;4.90;;;26.10;91.60;;;;;;4974429;28;20773;-84
2023/05/06 10:55:30;;;;;;;5.10;4.70;;;26.10;90.30;;;;;;4974722;28;20440;-81
2023/05/06 10:58:01;;;;;;;5.53;5.13;;;25.90;91.00;;;;;;4974629;28;20900;-84
2023/05/06 11:00:31;;;;;;;5.60;5.10;;;25.90;90.90;;;;;;4973237;28;20482;-84
2023/05/06 11:03:00;;;;;;;5.27;4.77;;;25.90;90.90;;;;;;4974633;28;20430;-82
2023/05/06 11:05:26;;;;;;;7.00;5.10;;;26.10;91.00;;;;;;4974350;28;20460;-83
2023/05/06 11:08:05;;;;;;;7.40;5.60;;;26.10;91.10;;;;;;4973208;28;20422;-84
2023/05/06 11:10:32;;;;;;;6.20;5.60;;;26.10;91.50;;;;;;4973259;28;20445;-82
2023/05/06 11:13:21;;;;;;;5.80;5.30;;;26.30;91.60;;;;;;4974536;28;20489;-81
2023/05/06 11:15:50;;;;;;;5.50;5.00;;;26.20;91.30;;;;;;4978049;28;20820;-81
2023/05/06 11:18:28;;;;;;;5.80;5.30;;;26.30;91.50;;;;;;4986166;28;20457;-82
2023/05/06 11:21:00;;;;;;;6.50;5.90;;;26.30;91.60;;;;;;4990495;28;20481;-82
2023/05/06 11:23:41;;;;;;;8.03;4.97;;;26.30;91.50;;;;;;5007139;28;20445;-81
2023/05/06 11:26:11;;;;;;;5.17;4.77;;;26.20;91.00;;;;;;4990940;28;20453;-84
2023/05/06 11:28:37;;;;;;;5.13;4.63;;;26.20;91.10;;;;;;4979869;28;20458;-85
2023/05/06 11:31:03;;;;;;;5.60;5.10;;;26.20;91.00;;;;;;4972213;28;20472;-81
2023/05/06 11:33:35;;;;;;;5.90;5.40;;;26.30;90.20;;;;;;4974755;28;20430;-84
2023/05/06 11:36:02;;;;;;;5.00;4.50;;;26.20;89.80;;;;;;4977066;28;20668;-81
2023/05/06 11:39:07;;;;;;;7.57;5.60;;;26.20;90.10;;;;;;4976455;28;20422;-81
2023/05/06 11:41:33;;;;;;;6.83;5.80;;;26.30;90.30;;;;;;4920682;29;20479;-85
2023/05/06 11:43:59;;;;;;;5.50;5.00;;;26.30;90.50;;;;;;4970014;28;20434;-83
2023/05/06 11:46:31;;;;;;;5.10;4.70;;;26.40;90.70;;;;;;4977691;28;20433;-81
2023/05/06 11:48:56;;;;;;;5.00;4.50;;;26.50;90.70;;;;;;4976512;28;20207;-86
2023/05/06 11:51:22;;;;;;;6.33;4.50;;;26.30;90.00;;;;;;4976220;28;20453;-86
2023/05/06 11:53:48;;;;;;;4.80;4.13;;;26.10;88.70;;;;;;4976283;28;20184;-86
2023/05/06 11:56:14;;;;;;;5.00;4.60;;;25.90;88.50;;;;;;4976137;28;20776;-85
2023/05/06 11:58:39;;;;;;;4.60;4.30;;;25.80;88.20;;;;;;4977787;28;20212;-80
2023/05/06 12:01:05;;;;;;;4.63;4.23;;;25.70;90.00;;;;;;4977199;28;20681;-82
2023/05/06 12:03:32;;;;;;;4.90;4.47;;;25.90;89.50;;;;;;4975905;28;20183;-84
2023/05/06 12:05:58;;;;;;;4.13;3.83;;;26.00;90.00;;;;;;4975940;28;20566;-85
2023/05/06 12:08:33;;;;;;;4.70;4.30;;;26.20;89.40;;;;;;4977430;28;20433;-84
2023/05/06 12:11:01;;;;;;;4.53;4.13;;;26.30;87.30;;;;;;4977187;28;20808;-83
2023/05/06 12:13:28;;;;;;;4.23;3.90;;;26.10;86.90;;;;;;4977665;28;20421;-83
2023/05/06 12:15:58;;;;;;;4.90;4.50;;;26.00;86.90;;;;;;4977010;28;20426;-82
2023/05/06 12:18:25;;;;;;;4.70;4.30;;;26.00;87.20;;;;;;4976636;28;20536;-82
2023/05/06 12:20:54;;;;;;;4.83;4.43;;;26.10;88.60;;;;;;4976244;28;20477;-87
2023/05/06 12:23:20;;;;;;;4.50;4.20;;;26.10;89.80;;;;;;4975751;28;20569;-84
2023/05/06 12:26:00;;;;;;;4.93;4.53;;;26.10;87.90;;;;;;4976868;28;20462;-85
2023/05/06 12:28:26;;;;;;;4.33;4.03;;;26.20;88.80;;;;;;4975734;28;20504;-82
2023/05/06 12:30:52;;;;;;;7.80;4.87;;;26.30;88.20;;;;;;4975553;28;20533;-82
2023/05/06 12:33:17;;;;;;;4.70;3.90;;;26.40;86.80;;;;;;4976910;28;20209;-82
2023/05/06 12:35:43;;;;;;;5.07;3.73;;;26.40;87.70;;;;;;4975373;28;20204;-83